createdAt,value
2022-10-22T00:01:31.129Z,100780.80
2022-10-22T00:04:36.154Z,100782.00
2022-10-22T00:07:43.981Z,100777.60
2022-10-22T00:10:49.220Z,100765.20
2022-10-22T00:13:54.190Z,100767.20
2022-10-22T00:16:59.166Z,100758.00
2022-10-22T00:20:04.252Z,100759.80
2022-10-22T00:23:09.191Z,100751.60
2022-10-22T00:26:14.187Z,100743.60
2022-10-22T00:29:19.182Z,100745.80
2022-10-22T00:32:24.192Z,100744.20
2022-10-22T00:35:33.197Z,100740.40
2022-10-22T00:38:38.200Z,100737.80
2022-10-22T00:41:42.211Z,100734.00
2022-10-22T00:44:47.218Z,100727.60
2022-10-22T00:47:52.406Z,100719.20
2022-10-22T00:50:57.209Z,100719.00
2022-10-22T00:54:02.331Z,100718.20
2022-10-22T00:57:08.250Z,100714.40
2022-10-22T01:00:13.255Z,100710.40
2022-10-22T01:03:17.253Z,100705.40
2022-10-22T01:06:26.296Z,100700.20
2022-10-22T01:09:34.747Z,100699.00
2022-10-22T01:12:40.636Z,100689.20
2022-10-22T01:15:48.282Z,100685.60
2022-10-22T01:18:54.348Z,100678.20
2022-10-22T01:21:59.316Z,100675.40
2022-10-22T01:25:05.325Z,100677.00
2022-10-22T01:28:10.329Z,100680.40
2022-10-22T01:31:15.317Z,100673.80
2022-10-22T01:34:20.357Z,100670.80
2022-10-22T01:37:25.348Z,100665.40
2022-10-22T01:40:30.357Z,100659.40
2022-10-22T01:43:35.409Z,100654.20
2022-10-22T01:46:40.384Z,100649.00
2022-10-22T01:49:49.446Z,100645.40
2022-10-22T01:52:54.389Z,100636.60
2022-10-22T01:55:58.391Z,100631.20
2022-10-22T01:59:03.499Z,100633.80
2022-10-22T02:02:08.421Z,100636.00
2022-10-22T02:05:14.434Z,100633.60
2022-10-22T02:08:19.515Z,100635.60
2022-10-22T02:11:24.429Z,100636.00
2022-10-22T02:14:20.422Z,100634.20
2022-10-22T02:17:25.454Z,100637.00
2022-10-22T02:20:30.471Z,100627.60
2022-10-22T02:23:38.475Z,100622.80
2022-10-22T02:26:43.520Z,100627.20
2022-10-22T02:29:48.452Z,100623.60
2022-10-22T02:32:53.525Z,100631.20
2022-10-22T02:35:59.525Z,100636.40
2022-10-22T02:39:05.547Z,100632.20
2022-10-22T02:42:11.533Z,100636.60
2022-10-22T02:45:17.516Z,100630.00
2022-10-22T02:48:22.595Z,100626.20
2022-10-22T02:51:27.546Z,100619.80
2022-10-22T02:54:32.544Z,100619.00
2022-10-22T02:57:43.670Z,100617.20
2022-10-22T03:00:48.602Z,100614.60
2022-10-22T03:03:53.564Z,100615.40
2022-10-22T03:06:57.578Z,100622.60
2022-10-22T03:10:06.580Z,100613.60
2022-10-22T03:13:11.563Z,100612.20
2022-10-22T03:16:15.820Z,100604.20
2022-10-22T03:19:21.597Z,100609.80
2022-10-22T03:22:26.675Z,100616.80
2022-10-22T03:25:31.608Z,100612.00
2022-10-22T03:28:36.634Z,100609.80
2022-10-22T03:31:41.647Z,100615.40
2022-10-22T03:34:47.699Z,100605.20
2022-10-22T03:37:52.651Z,100603.80
2022-10-22T03:40:57.646Z,100606.20
2022-10-22T03:44:02.636Z,100604.00
2022-10-22T03:47:08.698Z,100606.20
2022-10-22T03:50:14.689Z,100601.20
2022-10-22T03:53:19.715Z,100596.40
2022-10-22T03:56:24.751Z,100593.00
2022-10-22T03:59:30.862Z,100600.80
2022-10-22T04:02:35.722Z,100603.20
2022-10-22T04:05:40.693Z,100607.20
2022-10-22T04:08:45.767Z,100603.20
2022-10-22T04:11:54.713Z,100600.80
2022-10-22T04:15:00.745Z,100592.00
2022-10-22T04:18:05.742Z,100599.80
2022-10-22T04:21:11.778Z,100598.60
2022-10-22T04:24:16.747Z,100590.20
2022-10-22T04:27:21.941Z,100600.80
2022-10-22T04:30:26.767Z,100594.20
2022-10-22T04:33:31.780Z,100598.20
2022-10-22T04:36:36.871Z,100602.20
2022-10-22T04:39:41.786Z,100609.20
2022-10-22T04:42:46.808Z,100597.00
2022-10-22T04:45:51.942Z,100598.40
2022-10-22T04:48:56.887Z,100607.20
2022-10-22T04:52:01.806Z,100606.00
2022-10-22T04:55:05.839Z,100602.40
2022-10-22T04:58:11.843Z,100606.40
2022-10-22T05:01:22.940Z,100598.40
2022-10-22T05:04:30.851Z,100592.80
2022-10-22T05:07:36.888Z,100582.80
2022-10-22T05:10:45.866Z,100586.60
2022-10-22T05:13:51.887Z,100580.20
2022-10-22T05:16:55.912Z,100573.20
2022-10-22T05:20:00.916Z,100570.40
2022-10-22T05:23:06.059Z,100561.60
2022-10-22T05:26:10.924Z,100562.60
2022-10-22T05:29:16.928Z,100563.00
2022-10-22T05:32:25.014Z,100565.20
2022-10-22T05:35:29.955Z,100579.80
2022-10-22T05:38:35.956Z,100573.80
2022-10-22T05:41:41.953Z,100571.20
2022-10-22T05:44:47.941Z,100576.40
2022-10-22T05:47:51.973Z,100576.60
2022-10-22T05:50:57.992Z,100584.80
2022-10-22T05:54:02.968Z,100577.20
2022-10-22T05:57:08.005Z,100578.00
2022-10-22T06:00:15.749Z,100578.60
2022-10-22T06:03:20.997Z,100582.20
2022-10-22T06:06:27.011Z,100581.80
2022-10-22T06:09:33.059Z,100583.00
2022-10-22T06:12:38.293Z,100589.60
2022-10-22T06:15:43.014Z,100583.40
2022-10-22T06:18:50.211Z,100578.60
2022-10-22T06:21:55.035Z,100586.80
2022-10-22T06:25:01.053Z,100584.60
2022-10-22T06:28:06.043Z,100574.20
2022-10-22T06:31:11.085Z,100581.60
2022-10-22T06:34:16.067Z,100583.20
2022-10-22T06:37:22.136Z,100594.40
2022-10-22T06:40:27.081Z,100595.80
2022-10-22T06:43:32.107Z,100592.20
2022-10-22T06:46:40.076Z,100589.00
2022-10-22T06:49:47.141Z,100584.60
2022-10-22T06:52:52.126Z,100583.00
2022-10-22T06:55:57.127Z,100589.80
2022-10-22T06:59:03.146Z,100585.40
2022-10-22T07:02:08.217Z,100597.60
2022-10-22T07:05:14.169Z,100594.60
2022-10-22T07:08:20.140Z,100592.00
2022-10-22T07:11:38.192Z,100587.60
2022-10-22T07:14:43.156Z,100575.00
2022-10-22T07:17:48.192Z,100577.00
2022-10-22T07:20:52.181Z,100588.60
2022-10-22T07:24:00.221Z,100579.00
2022-10-22T07:27:09.404Z,100575.00
2022-10-22T07:30:17.235Z,100584.20
2022-10-22T07:33:22.264Z,100576.00
2022-10-22T07:36:28.251Z,100578.60
2022-10-22T07:39:34.228Z,100577.60
2022-10-22T07:42:39.287Z,100585.80
2022-10-22T07:45:44.269Z,100589.00
2022-10-22T07:48:49.264Z,100581.80
2022-10-22T07:51:55.276Z,100584.40
2022-10-22T07:55:00.294Z,100574.60
2022-10-22T07:58:05.318Z,100564.40
2022-10-22T08:01:10.383Z,100560.20
2022-10-22T08:04:16.326Z,100559.60
2022-10-22T08:07:22.328Z,100559.40
2022-10-22T08:10:28.307Z,100559.20
2022-10-22T08:13:36.329Z,100552.00
2022-10-22T08:16:41.315Z,100556.00
2022-10-22T08:19:47.348Z,100555.40
2022-10-22T08:22:52.356Z,100553.00
2022-10-22T08:25:46.397Z,100547.60
2022-10-22T08:28:51.385Z,100544.40
2022-10-22T08:31:57.365Z,100538.20
2022-10-22T08:35:03.423Z,100537.60
2022-10-22T08:38:08.375Z,100529.80
2022-10-22T08:41:14.386Z,100529.00
2022-10-22T08:44:20.407Z,100526.40
2022-10-22T08:47:29.401Z,100526.40
2022-10-22T08:50:34.473Z,100523.80
2022-10-22T08:53:40.402Z,100522.20
2022-10-22T08:56:34.503Z,100522.60
2022-10-22T08:59:39.452Z,100520.20
2022-10-22T09:02:44.756Z,100520.00
2022-10-22T09:08:55.578Z,100509.20
2022-10-22T09:12:00.471Z,100506.60
2022-10-22T09:15:05.480Z,100501.20
2022-10-22T09:18:10.456Z,100502.80
2022-10-22T09:21:15.516Z,100495.20
2022-10-22T09:24:20.509Z,100500.00
2022-10-22T09:27:25.526Z,100506.60
2022-10-22T09:30:30.571Z,100498.00
2022-10-22T09:33:39.530Z,100502.40
2022-10-22T09:36:45.626Z,100499.80
2022-10-22T09:39:49.607Z,100501.80
2022-10-22T09:42:58.521Z,100506.60
2022-10-22T09:46:03.561Z,100494.80
2022-10-22T09:49:08.680Z,100492.20
2022-10-22T09:52:17.548Z,100488.80
2022-10-22T09:55:26.580Z,100483.80
2022-10-22T09:58:20.554Z,100490.40
2022-10-22T10:01:46.618Z,100485.00
2022-10-22T10:04:51.580Z,100482.20
2022-10-22T10:07:56.629Z,100475.80
2022-10-22T10:11:05.764Z,100476.80
2022-10-22T10:14:10.671Z,100474.60
2022-10-22T10:17:15.659Z,100476.40
2022-10-22T10:20:20.662Z,100465.60
2022-10-22T10:23:29.630Z,100466.40
2022-10-22T10:26:34.662Z,100459.00
2022-10-22T10:29:39.680Z,100455.80
2022-10-22T10:32:44.695Z,100445.60
2022-10-22T10:35:49.662Z,100433.80
2022-10-22T10:38:54.811Z,100434.40
2022-10-22T10:42:00.687Z,100432.40
2022-10-22T10:45:05.724Z,100419.00
2022-10-22T10:48:10.738Z,100412.80
2022-10-22T10:51:14.719Z,100412.60
2022-10-22T10:54:19.739Z,100406.40
2022-10-22T10:57:27.727Z,100404.60
2022-10-22T11:00:32.747Z,100406.40
2022-10-22T11:03:37.826Z,100399.60
2022-10-22T11:06:43.743Z,100400.00
2022-10-22T11:09:48.903Z,100393.40
2022-10-22T11:12:54.761Z,100387.80
2022-10-22T11:16:00.779Z,100376.40
2022-10-22T11:19:06.778Z,100359.20
2022-10-22T11:22:11.785Z,100355.80
2022-10-22T11:25:16.807Z,100349.80
2022-10-22T11:28:21.784Z,100345.40
2022-10-22T11:31:26.816Z,100338.20
2022-10-22T11:34:34.092Z,100339.60
2022-10-22T11:37:39.198Z,100341.00
2022-10-22T11:40:43.818Z,100337.00
2022-10-22T11:43:47.857Z,100340.20
2022-10-22T11:46:52.847Z,100334.00
2022-10-22T11:49:57.869Z,100333.20
2022-10-22T11:53:02.897Z,100336.00
2022-10-22T11:56:07.865Z,100333.60
2022-10-22T11:59:12.877Z,100334.00
2022-10-22T12:02:17.887Z,100330.60
2022-10-22T12:05:22.888Z,100327.20
2022-10-22T12:08:27.885Z,100319.00
2022-10-22T12:11:34.107Z,100319.00
2022-10-22T12:14:38.961Z,100312.00
2022-10-22T12:17:44.933Z,100308.60
2022-10-22T12:20:50.955Z,100310.60
2022-10-22T12:23:55.955Z,100309.40
2022-10-22T12:27:01.979Z,100301.40
2022-10-22T12:30:06.999Z,100295.80
2022-10-22T12:33:10.958Z,100297.20
2022-10-22T12:36:15.030Z,100298.20
2022-10-22T12:39:20.035Z,100297.40
2022-10-22T12:42:25.003Z,100296.60
2022-10-22T12:45:30.021Z,100295.00
2022-10-22T12:48:35.061Z,100288.60
2022-10-22T12:51:40.996Z,100284.60
2022-10-22T12:54:46.043Z,100283.40
2022-10-22T12:57:51.003Z,100281.80
2022-10-22T13:00:56.064Z,100275.00
2022-10-22T13:03:48.033Z,100279.60
2022-10-22T13:06:53.096Z,100280.40
2022-10-22T13:09:59.078Z,100271.60
2022-10-22T13:13:05.092Z,100267.40
2022-10-22T13:16:11.145Z,100263.80
2022-10-22T13:19:16.073Z,100263.00
2022-10-22T13:22:21.099Z,100272.00
2022-10-22T13:25:26.075Z,100273.20
2022-10-22T13:28:31.256Z,100265.80
2022-10-22T13:31:36.164Z,100261.00
2022-10-22T13:34:41.144Z,100267.00
2022-10-22T13:38:06.179Z,100266.40
2022-10-22T13:41:11.157Z,100267.40
2022-10-22T13:44:16.131Z,100271.20
2022-10-22T13:47:21.202Z,100261.80
2022-10-22T13:50:25.214Z,100262.00
2022-10-22T13:53:30.128Z,100256.00
2022-10-22T13:56:35.172Z,100251.40
2022-10-22T13:59:40.171Z,100256.80
2022-10-22T14:02:45.214Z,100255.40
2022-10-22T14:05:38.179Z,100250.60
2022-10-22T14:08:43.404Z,100249.60
2022-10-22T14:11:48.203Z,100246.20
2022-10-22T14:14:53.296Z,100242.00
2022-10-22T14:17:58.207Z,100241.80
2022-10-22T14:21:03.241Z,100237.80
2022-10-22T14:24:12.927Z,100239.00
2022-10-22T14:27:18.233Z,100241.40
2022-10-22T14:30:23.392Z,100236.80
2022-10-22T14:33:30.475Z,100237.60
2022-10-22T14:36:37.272Z,100235.20
2022-10-22T14:39:42.306Z,100235.60
2022-10-22T14:42:47.287Z,100219.80
2022-10-22T14:45:52.315Z,100226.80
2022-10-22T14:48:56.298Z,100229.20
2022-10-22T14:52:01.333Z,100222.20
2022-10-22T14:55:26.301Z,100220.60
2022-10-22T14:58:31.286Z,100207.80
2022-10-22T15:01:36.371Z,100218.00
2022-10-22T15:04:40.389Z,100214.80
2022-10-22T15:07:33.351Z,100216.20
2022-10-22T15:10:38.381Z,100224.80
2022-10-22T15:13:43.391Z,100223.40
2022-10-22T15:16:49.352Z,100226.80
2022-10-22T15:19:55.472Z,100217.60
2022-10-22T15:23:00.367Z,100223.40
2022-10-22T15:26:06.379Z,100221.40
2022-10-22T15:29:11.420Z,100217.20
2022-10-22T15:32:19.428Z,100212.40
2022-10-22T15:35:25.421Z,100225.60
2022-10-22T15:41:36.439Z,100225.40
2022-10-22T15:44:41.456Z,100221.40
2022-10-22T15:47:48.080Z,100220.00
2022-10-22T15:50:53.611Z,100223.00
2022-10-22T15:53:58.455Z,100224.20
2022-10-22T15:57:02.485Z,100228.40
2022-10-22T16:00:07.496Z,100230.60
2022-10-22T16:03:12.471Z,100223.60
2022-10-22T16:06:18.501Z,100218.80
2022-10-22T16:09:10.540Z,100221.20
2022-10-22T16:12:17.282Z,100221.20
2022-10-22T16:15:22.490Z,100232.40
2022-10-22T16:18:28.540Z,100229.00
2022-10-22T16:21:33.556Z,100230.60
2022-10-22T16:24:38.612Z,100236.80
2022-10-22T16:27:43.537Z,100225.80
2022-10-22T16:30:48.629Z,100232.60
2022-10-22T16:33:54.555Z,100245.20
2022-10-22T16:36:59.579Z,100240.80
2022-10-22T16:39:52.589Z,100237.00
2022-10-22T16:42:57.601Z,100243.00
2022-10-22T16:46:02.593Z,100244.00
2022-10-22T16:49:07.649Z,100247.00
2022-10-22T16:52:12.613Z,100245.40
2022-10-22T16:55:18.652Z,100233.00
2022-10-22T16:58:23.660Z,100240.00
2022-10-22T17:01:29.715Z,100246.00
2022-10-22T17:04:35.641Z,100245.20
2022-10-22T17:07:40.622Z,100244.60
2022-10-22T17:10:34.640Z,100238.80
2022-10-22T17:13:40.662Z,100246.00
2022-10-22T17:16:45.663Z,100245.80
2022-10-22T17:19:54.737Z,100233.00
2022-10-22T17:23:00.730Z,100234.60
2022-10-22T17:26:08.711Z,100242.00
2022-10-22T17:29:13.723Z,100249.00
2022-10-22T17:32:18.708Z,100248.00
2022-10-22T17:35:24.782Z,100241.40
2022-10-22T17:38:29.721Z,100235.00
2022-10-22T17:41:34.766Z,100237.20
2022-10-22T17:44:39.739Z,100229.80
2022-10-22T17:47:44.722Z,100230.20
2022-10-22T17:50:55.738Z,100222.80
2022-10-22T17:54:05.941Z,100209.60
2022-10-22T17:57:14.779Z,100202.80
2022-10-22T18:03:23.780Z,100198.00
2022-10-22T18:06:31.783Z,100191.00
2022-10-22T18:09:36.797Z,100181.80
2022-10-22T18:12:42.030Z,100181.20
2022-10-22T18:15:46.823Z,100186.00
2022-10-22T18:18:51.827Z,100187.40
2022-10-22T18:21:56.831Z,100177.20
2022-10-22T18:25:00.859Z,100161.00
2022-10-22T18:28:34.868Z,100146.00
2022-10-22T18:31:39.857Z,100168.80
2022-10-22T18:34:44.890Z,100175.40
2022-10-22T18:37:48.915Z,100192.00
2022-10-22T18:40:54.886Z,100194.80
2022-10-22T18:44:00.876Z,100185.40
2022-10-22T18:47:04.901Z,100174.40
2022-10-22T18:50:10.902Z,100180.60
2022-10-22T18:53:15.930Z,100177.60
2022-10-22T18:56:23.916Z,100191.60
2022-10-22T18:59:28.901Z,100191.20
2022-10-22T19:02:34.040Z,100192.20
2022-10-22T19:05:39.934Z,100174.40
2022-10-22T19:08:46.913Z,100162.80
2022-10-22T19:11:55.937Z,100162.20
2022-10-22T19:15:00.983Z,100152.60
2022-10-22T19:18:05.961Z,100160.40
2022-10-22T19:21:11.006Z,100163.40
2022-10-22T19:24:15.999Z,100156.20
2022-10-22T19:27:22.004Z,100158.80
2022-10-22T19:30:27.006Z,100154.20
2022-10-22T19:33:39.017Z,100159.00
2022-10-22T19:36:44.056Z,100148.60
2022-10-22T19:39:49.025Z,100150.80
2022-10-22T19:42:54.037Z,100160.60
2022-10-22T19:46:00.114Z,100160.00
2022-10-22T19:49:05.058Z,100165.00
2022-10-22T19:52:10.163Z,100165.20
2022-10-22T19:55:18.082Z,100164.40
2022-10-22T19:58:23.205Z,100164.20
2022-10-22T20:01:28.186Z,100163.60
2022-10-22T20:04:34.074Z,100166.00
2022-10-22T20:07:43.266Z,100156.80
2022-10-22T20:10:49.177Z,100157.20
2022-10-22T20:13:54.141Z,100155.40
2022-10-22T20:17:00.154Z,100155.60
2022-10-22T20:20:05.113Z,100151.60
2022-10-22T20:23:09.150Z,100153.00
2022-10-22T20:26:14.131Z,100156.20
2022-10-22T20:29:19.170Z,100157.60
2022-10-22T20:32:26.280Z,100152.40
2022-10-22T20:35:35.228Z,100148.20
2022-10-22T20:38:40.180Z,100143.00
2022-10-22T20:41:48.178Z,100144.40
2022-10-22T20:44:53.229Z,100137.00
2022-10-22T20:48:02.801Z,100140.80
2022-10-22T20:51:09.290Z,100136.40
2022-10-22T20:54:16.229Z,100126.20
2022-10-22T20:57:22.224Z,100127.80
2022-10-22T21:00:28.218Z,100126.80
2022-10-22T21:06:38.331Z,100119.20
2022-10-22T21:09:43.238Z,100115.40
2022-10-22T21:12:48.250Z,100113.80
2022-10-22T21:15:53.283Z,100111.20
2022-10-22T21:18:58.306Z,100103.60
2022-10-22T21:22:03.253Z,100091.40
2022-10-22T21:25:12.284Z,100083.80
2022-10-22T21:28:17.341Z,100087.20
2022-10-22T21:31:23.315Z,100095.80
2022-10-22T21:34:28.307Z,100103.00
2022-10-22T21:37:33.340Z,100098.20
2022-10-22T21:40:39.318Z,100108.60
2022-10-22T21:43:44.341Z,100114.40
2022-10-22T21:46:50.415Z,100112.40
2022-10-22T21:49:55.345Z,100091.40
2022-10-22T21:52:59.360Z,100094.60
2022-10-22T21:56:04.405Z,100103.20
2022-10-22T21:59:10.369Z,100106.00
2022-10-22T22:02:14.466Z,100096.40
2022-10-22T22:05:19.382Z,100093.80
2022-10-22T22:08:25.398Z,100065.80
2022-10-22T22:11:30.384Z,100056.60
2022-10-22T22:14:35.385Z,100051.60
2022-10-22T22:17:41.400Z,100042.20
2022-10-22T22:20:47.389Z,100044.00
2022-10-22T22:23:52.418Z,100041.60
2022-10-22T22:26:58.413Z,100044.60
2022-10-22T22:30:03.501Z,100041.40
2022-10-22T22:33:09.442Z,100031.60
2022-10-22T22:36:14.489Z,100030.20
2022-10-22T22:39:19.479Z,100035.00
2022-10-22T22:42:25.545Z,100028.00
2022-10-22T22:45:30.450Z,100018.20
2022-10-22T22:48:35.496Z,100013.40
2022-10-22T22:51:44.495Z,100009.40
2022-10-22T22:54:50.502Z,100017.40
2022-10-22T22:57:54.503Z,100010.20
2022-10-22T23:00:59.533Z,100011.80
2022-10-22T23:04:05.505Z,100019.80
2022-10-22T23:07:10.606Z,100019.80
2022-10-22T23:10:14.575Z,100009.80
2022-10-22T23:13:19.538Z,100009.20
2022-10-22T23:16:24.555Z,100008.80
2022-10-22T23:19:29.735Z,100009.40
2022-10-22T23:22:34.587Z,100010.40
2022-10-22T23:25:39.567Z,100017.80
2022-10-22T23:28:44.644Z,100013.00
2022-10-22T23:31:49.595Z,100009.20
2022-10-22T23:34:54.617Z,100010.40
2022-10-22T23:38:00.591Z,100017.80
2022-10-22T23:41:05.642Z,100004.00
2022-10-22T23:44:10.644Z,100004.00
2022-10-22T23:47:15.638Z,99998.20
2022-10-22T23:50:21.635Z,100006.00
2022-10-22T23:53:25.729Z,100000.60
2022-10-22T23:56:30.733Z,99994.80
2022-10-22T23:59:36.690Z,99992.00
